sensor_id;sensor_type;location;lat;lon;timestamp;pressure;altitude;pressure_sealevel;temperature;humidity
60974;BME280;46846;51.528;5.076;2023-04-01T00:00:19;98628.63;;;8.32;83.64
60974;BME280;46846;51.528;5.076;2023-04-01T00:02:45;98625.03;;;8.33;83.55
60974;BME280;46846;51.528;5.076;2023-04-01T00:05:11;98634.75;;;8.33;83.48
60974;BME280;46846;51.528;5.076;2023-04-01T00:07:37;98631.16;;;8.34;83.99
60974;BME280;46846;51.528;5.076;2023-04-01T00:10:03;98635.63;;;8.33;83.94
60974;BME280;46846;51.528;5.076;2023-04-01T00:12:29;98644.41;;;8.34;83.71
60974;BME280;46846;51.528;5.076;2023-04-01T00:14:54;98644.41;;;8.34;83.65
60974;BME280;46846;51.528;5.076;2023-04-01T00:17:20;98642.53;;;8.36;83.66
60974;BME280;46846;51.528;5.076;2023-04-01T00:19:46;98641.69;;;8.35;83.55
60974;BME280;46846;51.528;5.076;2023-04-01T00:22:11;98651.53;;;8.33;83.40
60974;BME280;46846;51.528;5.076;2023-04-01T00:24:37;98645.34;;;8.33;83.88
60974;BME280;46846;51.528;5.076;2023-04-01T00:27:02;98647.19;;;8.32;83.57
60974;BME280;46846;51.528;5.076;2023-04-01T00:29:28;98643.75;;;8.30;83.66
60974;BME280;46846;51.528;5.076;2023-04-01T00:31:55;98642.91;;;8.30;83.61
60974;BME280;46846;51.528;5.076;2023-04-01T00:34:21;98651.69;;;8.30;83.78
60974;BME280;46846;51.528;5.076;2023-04-01T00:36:46;98654.47;;;8.29;83.81
60974;BME280;46846;51.528;5.076;2023-04-01T00:39:11;98662.28;;;8.30;83.57
60974;BME280;46846;51.528;5.076;2023-04-01T00:41:37;98663.16;;;8.31;83.54
60974;BME280;46846;51.528;5.076;2023-04-01T00:44:14;98669.41;;;8.30;83.65
60974;BME280;46846;51.528;5.076;2023-04-01T00:46:40;98669.50;;;8.28;83.72
60974;BME280;46846;51.528;5.076;2023-04-01T00:49:05;98670.25;;;8.30;83.63
60974;BME280;46846;51.528;5.076;2023-04-01T00:51:30;98672.06;;;8.30;83.71
60974;BME280;46846;51.528;5.076;2023-04-01T00:53:57;98680.84;;;8.30;83.73
60974;BME280;46846;51.528;5.076;2023-04-01T00:56:25;98675.72;;;8.27;83.61
60974;BME280;46846;51.528;5.076;2023-04-01T00:58:57;98686.25;;;8.29;83.60
60974;BME280;46846;51.528;5.076;2023-04-01T01:01:24;98687.19;;;8.28;83.76
60974;BME280;46846;51.528;5.076;2023-04-01T01:03:49;98687.75;;;8.33;83.56
60974;BME280;46846;51.528;5.076;2023-04-01T01:06:24;98688.44;;;8.37;83.52
60974;BME280;46846;51.528;5.076;2023-04-01T01:09:07;98692.03;;;8.35;83.38
60974;BME280;46846;51.528;5.076;2023-04-01T01:16:34;98693.16;;;8.31;83.12
60974;BME280;46846;51.528;5.076;2023-04-01T01:19:06;98695.72;;;8.33;83.54
60974;BME280;46846;51.528;5.076;2023-04-01T01:32:17;98692.22;;;8.32;83.23
60974;BME280;46846;51.528;5.076;2023-04-01T01:35:03;98705.56;;;8.31;83.28
60974;BME280;46846;51.528;5.076;2023-04-01T01:37:28;98696.00;;;8.28;83.38
60974;BME280;46846;51.528;5.076;2023-04-01T01:39:55;98704.88;;;8.27;83.33
60974;BME280;46846;51.528;5.076;2023-04-01T01:42:21;98704.28;;;8.22;83.54
60974;BME280;46846;51.528;5.076;2023-04-01T01:44:49;98708.84;;;8.20;83.56
60974;BME280;46846;51.528;5.076;2023-04-01T01:47:15;98715.84;;;8.21;83.56
60974;BME280;46846;51.528;5.076;2023-04-01T01:49:41;98711.28;;;8.23;83.70
60974;BME280;46846;51.528;5.076;2023-04-01T01:52:08;98717.81;;;8.17;83.81
60974;BME280;46846;51.528;5.076;2023-04-01T01:54:33;98714.13;;;8.20;83.59
60974;BME280;46846;51.528;5.076;2023-04-01T01:57:06;98715.84;;;8.21;83.64
60974;BME280;46846;51.528;5.076;2023-04-01T01:59:32;98716.03;;;8.18;83.87
60974;BME280;46846;51.528;5.076;2023-04-01T02:02:00;98724.72;;;8.20;83.60
60974;BME280;46846;51.528;5.076;2023-04-01T02:04:32;98716.03;;;8.18;83.90
60974;BME280;46846;51.528;5.076;2023-04-01T02:07:00;98717.81;;;8.17;83.48
60974;BME280;46846;51.528;5.076;2023-04-01T02:09:27;98721.06;;;8.23;83.66
60974;BME280;46846;51.528;5.076;2023-04-01T02:11:58;98729.00;;;8.23;83.77
60974;BME280;46846;51.528;5.076;2023-04-01T02:17:11;98731.94;;;8.18;83.55
60974;BME280;46846;51.528;5.076;2023-04-01T02:19:38;98730.22;;;8.17;83.77
60974;BME280;46846;51.528;5.076;2023-04-01T02:22:04;98741.75;;;8.16;83.71
60974;BME280;46846;51.528;5.076;2023-04-01T02:24:31;98742.69;;;8.15;83.91
60974;BME280;46846;51.528;5.076;2023-04-01T02:26:58;98739.28;;;8.13;83.99
60974;BME280;46846;51.528;5.076;2023-04-01T02:29:24;98734.94;;;8.12;83.83
60974;BME280;46846;51.528;5.076;2023-04-01T02:31:53;98736.56;;;8.14;83.67
60974;BME280;46846;51.528;5.076;2023-04-01T02:34:19;98741.66;;;8.17;83.61
60974;BME280;46846;51.528;5.076;2023-04-01T02:36:44;98740.22;;;8.12;83.65
60974;BME280;46846;51.528;5.076;2023-04-01T02:39:09;98746.41;;;8.12;83.88
60974;BME280;46846;51.528;5.076;2023-04-01T02:41:39;98739.56;;;8.08;83.89
60974;BME280;46846;51.528;5.076;2023-04-01T02:44:04;98749.28;;;8.07;84.01
60974;BME280;46846;51.528;5.076;2023-04-01T02:46:30;98749.56;;;8.03;83.92
60974;BME280;46846;51.528;5.076;2023-04-01T02:48:55;98751.25;;;8.04;83.95
60974;BME280;46846;51.528;5.076;2023-04-01T02:51:20;98753.66;;;8.09;83.91
60974;BME280;46846;51.528;5.076;2023-04-01T02:53:45;98757.91;;;8.11;83.79
60974;BME280;46846;51.528;5.076;2023-04-01T02:56:10;98752.78;;;8.08;83.92
60974;BME280;46846;51.528;5.076;2023-04-01T02:58:36;98758.78;;;8.12;83.75
60974;BME280;46846;51.528;5.076;2023-04-01T03:01:01;98760.75;;;8.08;83.65
60974;BME280;46846;51.528;5.076;2023-04-01T03:03:26;98758.19;;;8.06;83.79
60974;BME280;46846;51.528;5.076;2023-04-01T03:05:51;98766.13;;;8.06;84.06
60974;BME280;46846;51.528;5.076;2023-04-01T03:08:20;98761.00;;;8.03;83.91
60974;BME280;46846;51.528;5.076;2023-04-01T03:10:45;98772.97;;;8.11;83.81
60974;BME280;46846;51.528;5.076;2023-04-01T03:13:11;98772.22;;;8.09;83.67
60974;BME280;46846;51.528;5.076;2023-04-01T03:15:36;98775.59;;;8.11;83.78
60974;BME280;46846;51.528;5.076;2023-04-01T03:18:01;98778.41;;;8.07;83.71
60974;BME280;46846;51.528;5.076;2023-04-01T03:20:28;98780.50;;;8.02;83.73
60974;BME280;46846;51.528;5.076;2023-04-01T03:22:53;98772.28;;;8.07;83.86
60974;BME280;46846;51.528;5.076;2023-04-01T03:25:18;98776.81;;;8.05;83.71
60974;BME280;46846;51.528;5.076;2023-04-01T03:27:43;98781.44;;;8.01;84.02
60974;BME280;46846;51.528;5.076;2023-04-01T03:30:09;98787.41;;;8.05;83.85
60974;BME280;46846;51.528;5.076;2023-04-01T03:32:34;98792.13;;;8.00;83.87
60974;BME280;46846;51.528;5.076;2023-04-01T03:34:59;98785.88;;;8.01;84.02
60974;BME280;46846;51.528;5.076;2023-04-01T03:37:28;98786.28;;;8.09;83.83
60974;BME280;46846;51.528;5.076;2023-04-01T03:39:53;98804.16;;;8.05;83.75
60974;BME280;46846;51.528;5.076;2023-04-01T03:42:18;98796.97;;;8.07;83.86
60974;BME280;46846;51.528;5.076;2023-04-01T03:44:44;98791.09;;;8.02;83.81
60974;BME280;46846;51.528;5.076;2023-04-01T03:47:09;98795.78;;;7.97;83.93
60974;BME280;46846;51.528;5.076;2023-04-01T03:49:35;98802.72;;;8.00;84.06
60974;BME280;46846;51.528;5.076;2023-04-01T03:52:00;98802.63;;;8.01;84.01
60974;BME280;46846;51.528;5.076;2023-04-01T03:54:25;98808.09;;;7.98;83.96
60974;BME280;46846;51.528;5.076;2023-04-01T03:56:51;98810.72;;;7.98;84.09
60974;BME280;46846;51.528;5.076;2023-04-01T03:59:16;98803.06;;;7.93;84.04
60974;BME280;46846;51.528;5.076;2023-04-01T04:01:41;98810.91;;;7.95;83.95
60974;BME280;46846;51.528;5.076;2023-04-01T04:04:06;98813.47;;;7.97;83.80
60974;BME280;46846;51.528;5.076;2023-04-01T04:06:32;98811.75;;;7.96;83.90
60974;BME280;46846;51.528;5.076;2023-04-01T04:08:58;98812.69;;;7.94;83.81
60974;BME280;46846;51.528;5.076;2023-04-01T04:11:23;98819.03;;;7.92;84.10
60974;BME280;46846;51.528;5.076;2023-04-01T04:13:48;98816.56;;;7.89;84.13
60974;BME280;46846;51.528;5.076;2023-04-01T04:16:14;98821.84;;;7.89;84.09
60974;BME280;46846;51.528;5.076;2023-04-01T04:18:39;98834.16;;;7.90;84.07
60974;BME280;46846;51.528;5.076;2023-04-01T04:21:05;98837.47;;;7.93;84.08
60974;BME280;46846;51.528;5.076;2023-04-01T04:23:30;98837.56;;;7.92;83.92
60974;BME280;46846;51.528;5.076;2023-04-01T04:25:57;98836.78;;;7.90;84.17
60974;BME280;46846;51.528;5.076;2023-04-01T04:28:23;98841.22;;;7.89;84.27
60974;BME280;46846;51.528;5.076;2023-04-01T04:30:48;98843.88;;;7.89;84.27
60974;BME280;46846;51.528;5.076;2023-04-01T04:33:13;98851.06;;;7.87;84.47
60974;BME280;46846;51.528;5.076;2023-04-01T04:35:39;98852.00;;;7.86;83.98
60974;BME280;46846;51.528;5.076;2023-04-01T04:38:04;98859.88;;;7.88;84.35
60974;BME280;46846;51.528;5.076;2023-04-01T04:40:29;98854.66;;;7.86;84.02
60974;BME280;46846;51.528;5.076;2023-04-01T04:42:55;98863.63;;;7.84;84.09
60974;BME280;46846;51.528;5.076;2023-04-01T04:45:20;98861.56;;;7.89;84.37
60974;BME280;46846;51.528;5.076;2023-04-01T04:47:45;98864.22;;;7.89;83.93
60974;BME280;46846;51.528;5.076;2023-04-01T04:50:10;98868.06;;;7.83;84.16
60974;BME280;46846;51.528;5.076;2023-04-01T04:52:36;98870.34;;;7.89;83.96
60974;BME280;46846;51.528;5.076;2023-04-01T04:55:02;98875.91;;;7.85;84.06
60974;BME280;46846;51.528;5.076;2023-04-01T04:57:27;98880.44;;;7.83;84.23
60974;BME280;46846;51.528;5.076;2023-04-01T04:59:52;98878.56;;;7.85;84.15
60974;BME280;46846;51.528;5.076;2023-04-01T05:02:17;98885.75;;;7.83;83.90
60974;BME280;46846;51.528;5.076;2023-04-01T05:04:43;98884.03;;;7.82;83.92
60974;BME280;46846;51.528;5.076;2023-04-01T05:07:08;98890.28;;;7.80;84.13
60974;BME280;46846;51.528;5.076;2023-04-01T05:09:33;98892.75;;;7.84;83.86
60974;BME280;46846;51.528;5.076;2023-04-01T05:11:59;98899.06;;;7.81;83.96
60974;BME280;46846;51.528;5.076;2023-04-01T05:14:24;98898.34;;;7.77;84.46
60974;BME280;46846;51.528;5.076;2023-04-01T05:16:49;98902.91;;;7.75;83.98
60974;BME280;46846;51.528;5.076;2023-04-01T05:19:15;98905.13;;;7.83;83.94
60974;BME280;46846;51.528;5.076;2023-04-01T05:21:40;98916.00;;;7.78;84.10
60974;BME280;46846;51.528;5.076;2023-04-01T05:24:09;98917.69;;;7.79;84.03
60974;BME280;46846;51.528;5.076;2023-04-01T05:26:34;98916.75;;;7.80;83.93
60974;BME280;46846;51.528;5.076;2023-04-01T05:29:00;98918.53;;;7.80;84.25
60974;BME280;46846;51.528;5.076;2023-04-01T05:31:25;98930.00;;;7.80;84.35
60974;BME280;46846;51.528;5.076;2023-04-01T05:33:50;98932.97;;;7.74;84.04
60974;BME280;46846;51.528;5.076;2023-04-01T05:36:16;98928.34;;;7.78;84.32
60974;BME280;46846;51.528;5.076;2023-04-01T05:38:41;98932.78;;;7.77;84.08
60974;BME280;46846;51.528;5.076;2023-04-01T05:41:11;98937.16;;;7.78;84.26
60974;BME280;46846;51.528;5.076;2023-04-01T05:43:36;98939.97;;;7.75;84.13
60974;BME280;46846;51.528;5.076;2023-04-01T05:46:02;98945.09;;;7.78;84.17
60974;BME280;46846;51.528;5.076;2023-04-01T05:48:27;98949.72;;;7.75;84.01
60974;BME280;46846;51.528;5.076;2023-04-01T05:50:52;98960.19;;;7.76;84.17
60974;BME280;46846;51.528;5.076;2023-04-01T05:53:17;98951.31;;;7.77;84.00
60974;BME280;46846;51.528;5.076;2023-04-01T05:55:43;98958.34;;;7.78;83.78
60974;BME280;46846;51.528;5.076;2023-04-01T05:58:08;98961.91;;;7.77;83.96
60974;BME280;46846;51.528;5.076;2023-04-01T06:00:33;98966.19;;;7.80;84.04
60974;BME280;46846;51.528;5.076;2023-04-01T06:02:59;98978.59;;;7.79;83.78
60974;BME280;46846;51.528;5.076;2023-04-01T06:05:26;98980.28;;;7.80;84.16
60974;BME280;46846;51.528;5.076;2023-04-01T06:07:54;98975.16;;;7.77;84.00
60974;BME280;46846;51.528;5.076;2023-04-01T06:10:36;98991.03;;;7.77;83.75
60974;BME280;46846;51.528;5.076;2023-04-01T06:13:27;98995.56;;;7.75;83.97
60974;BME280;46846;51.528;5.076;2023-04-01T06:16:00;98994.72;;;7.75;83.98
60974;BME280;46846;51.528;5.076;2023-04-01T06:23:47;99014.16;;;7.74;83.83
60974;BME280;46846;51.528;5.076;2023-04-01T06:26:29;99016.03;;;7.72;83.95
60974;BME280;46846;51.528;5.076;2023-04-01T06:31:28;99022.03;;;7.75;83.97
60974;BME280;46846;51.528;5.076;2023-04-01T06:36:38;99032.63;;;7.75;84.11
60974;BME280;46846;51.528;5.076;2023-04-01T06:54:37;99053.88;;;7.74;84.01
60974;BME280;46846;51.528;5.076;2023-04-01T06:59:39;99068.06;;;7.73;84.09
60974;BME280;46846;51.528;5.076;2023-04-01T07:04:46;99067.91;;;7.76;83.75
60974;BME280;46846;51.528;5.076;2023-04-01T07:07:21;99067.13;;;7.74;83.67
60974;BME280;46846;51.528;5.076;2023-04-01T07:09:49;99071.72;;;7.70;83.66
60974;BME280;46846;51.528;5.076;2023-04-01T07:14:44;99080.69;;;7.68;84.02
60974;BME280;46846;51.528;5.076;2023-04-01T07:17:23;99084.25;;;7.66;84.20
60974;BME280;46846;51.528;5.076;2023-04-01T07:22:31;99089.34;;;7.71;84.00
60974;BME280;46846;51.528;5.076;2023-04-01T07:24:57;99094.47;;;7.74;83.89
60974;BME280;46846;51.528;5.076;2023-04-01T07:27:26;99102.63;;;7.70;84.13
60974;BME280;46846;51.528;5.076;2023-04-01T07:29:51;99105.22;;;7.71;83.76
60974;BME280;46846;51.528;5.076;2023-04-01T07:32:39;99106.22;;;7.69;83.92
60974;BME280;46846;51.528;5.076;2023-04-01T07:38:18;99112.81;;;7.77;83.94
60974;BME280;46846;51.528;5.076;2023-04-01T07:50:31;99124.53;;;7.73;83.69
60974;BME280;46846;51.528;5.076;2023-04-01T07:58:21;99140.19;;;7.78;83.92
60974;BME280;46846;51.528;5.076;2023-04-01T08:00:57;99147.41;;;7.74;83.95
60974;BME280;46846;51.528;5.076;2023-04-01T08:03:31;99150.06;;;7.74;84.00
60974;BME280;46846;51.528;5.076;2023-04-01T08:11:10;99166.88;;;7.73;84.50
60974;BME280;46846;51.528;5.076;2023-04-01T08:13:46;99170.38;;;7.74;83.94
60974;BME280;46846;51.528;5.076;2023-04-01T08:18:43;99177.47;;;7.73;84.46
60974;BME280;46846;51.528;5.076;2023-04-01T08:23:58;99190.78;;;7.72;84.29
60974;BME280;46846;51.528;5.076;2023-04-01T08:26:34;99191.50;;;7.75;84.59
60974;BME280;46846;51.528;5.076;2023-04-01T08:33:56;99199.50;;;7.74;84.18
60974;BME280;46846;51.528;5.076;2023-04-01T08:36:23;99202.25;;;7.72;84.39
60974;BME280;46846;51.528;5.076;2023-04-01T08:41:50;99209.31;;;7.72;84.27
60974;BME280;46846;51.528;5.076;2023-04-01T08:49:40;99212.84;;;7.72;84.17
60974;BME280;46846;51.528;5.076;2023-04-01T08:57:32;99225.72;;;7.61;84.75
60974;BME280;46846;51.528;5.076;2023-04-01T09:16:20;99255.50;;;7.66;85.00
60974;BME280;46846;51.528;5.076;2023-04-01T09:21:27;99263.97;;;7.73;84.68
60974;BME280;46846;51.528;5.076;2023-04-01T09:24:14;99255.19;;;7.72;84.61
60974;BME280;46846;51.528;5.076;2023-04-01T09:40:11;99272.03;;;7.71;84.43
60974;BME280;46846;51.528;5.076;2023-04-01T09:42:43;99277.00;;;7.77;84.75
60974;BME280;46846;51.528;5.076;2023-04-01T09:45:19;99281.44;;;7.77;84.52
60974;BME280;46846;51.528;5.076;2023-04-01T09:53:10;99281.06;;;7.85;84.96
60974;BME280;46846;51.528;5.076;2023-04-01T09:58:32;99287.34;;;7.82;84.98
60974;BME280;46846;51.528;5.076;2023-04-01T10:01:08;99283.94;;;7.80;85.14
60974;BME280;46846;51.528;5.076;2023-04-01T10:11:14;99303.41;;;7.79;84.95
60974;BME280;46846;51.528;5.076;2023-04-01T10:14:07;99298.41;;;7.73;84.77
60974;BME280;46846;51.528;5.076;2023-04-01T10:24:58;99317.53;;;7.79;84.82
60974;BME280;46846;51.528;5.076;2023-04-01T11:30:26;99369.59;;;7.98;84.46
60974;BME280;46846;51.528;5.076;2023-04-01T11:43:28;99382.84;;;7.98;84.71
60974;BME280;46846;51.528;5.076;2023-04-01T11:46:11;99382.84;;;7.98;85.25
60974;BME280;46846;51.528;5.076;2023-04-01T11:51:47;99392.22;;;8.05;85.58
60974;BME280;46846;51.528;5.076;2023-04-01T12:01:41;99408.75;;;8.11;84.85
60974;BME280;46846;51.528;5.076;2023-04-01T12:04:23;99408.88;;;8.07;84.64
60974;BME280;46846;51.528;5.076;2023-04-01T12:07:14;99415.28;;;8.03;85.08
60974;BME280;46846;51.528;5.076;2023-04-01T12:15:28;99423.28;;;8.02;85.04
60974;BME280;46846;51.528;5.076;2023-04-01T12:20:48;99430.91;;;8.10;84.90
60974;BME280;46846;51.528;5.076;2023-04-01T12:41:49;99447.19;;;8.00;85.46
60974;BME280;46846;51.528;5.076;2023-04-01T12:52:54;99457.28;;;8.11;85.10
60974;BME280;46846;51.528;5.076;2023-04-01T12:57:59;99462.59;;;8.11;85.04
60974;BME280;46846;51.528;5.076;2023-04-01T13:05:29;99472.91;;;8.17;85.03
60974;BME280;46846;51.528;5.076;2023-04-01T13:08:13;99481.06;;;8.13;85.00
60974;BME280;46846;51.528;5.076;2023-04-01T13:10:55;99470.31;;;8.16;85.17
60974;BME280;46846;51.528;5.076;2023-04-01T13:13:29;99481.94;;;8.13;85.79
60974;BME280;46846;51.528;5.076;2023-04-01T13:28:57;99493.38;;;8.14;85.58
60974;BME280;46846;51.528;5.076;2023-04-01T13:31:31;99489.97;;;8.12;86.09
60974;BME280;46846;51.528;5.076;2023-04-01T13:39:19;99498.41;;;8.20;86.10
60974;BME280;46846;51.528;5.076;2023-04-01T13:44:22;99507.28;;;8.19;85.96
60974;BME280;46846;51.528;5.076;2023-04-01T14:00:27;99522.97;;;8.24;85.95
60974;BME280;46846;51.528;5.076;2023-04-01T14:03:03;99517.03;;;8.18;86.56
60974;BME280;46846;51.528;5.076;2023-04-01T14:13:34;99536.16;;;8.25;86.32
60974;BME280;46846;51.528;5.076;2023-04-01T14:18:58;99542.41;;;8.24;86.27
60974;BME280;46846;51.528;5.076;2023-04-01T14:21:46;99544.91;;;8.27;86.30
60974;BME280;46846;51.528;5.076;2023-04-01T14:29:46;99554.28;;;8.34;86.21
60974;BME280;46846;51.528;5.076;2023-04-01T14:35:03;99558.16;;;8.27;85.96
60974;BME280;46846;51.528;5.076;2023-04-01T14:42:56;99573.19;;;8.27;85.71
60974;BME280;46846;51.528;5.076;2023-04-01T14:50:46;99589.03;;;8.28;85.89
60974;BME280;46846;51.528;5.076;2023-04-01T14:53:16;99593.38;;;8.29;85.66
60974;BME280;46846;51.528;5.076;2023-04-01T14:55:51;99597.75;;;8.30;85.63
60974;BME280;46846;51.528;5.076;2023-04-01T14:58:17;99596.97;;;8.28;85.73
60974;BME280;46846;51.528;5.076;2023-04-01T15:00:47;99588.03;;;8.31;85.85
60974;BME280;46846;51.528;5.076;2023-04-01T15:05:49;99599.34;;;8.34;85.79
60974;BME280;46846;51.528;5.076;2023-04-01T15:08:18;99600.28;;;8.33;86.03
60974;BME280;46846;51.528;5.076;2023-04-01T15:26:07;99622.06;;;8.40;85.78
60974;BME280;46846;51.528;5.076;2023-04-01T15:28:42;99629.94;;;8.42;85.51
60974;BME280;46846;51.528;5.076;2023-04-01T15:31:46;99626.53;;;8.40;85.81
60974;BME280;46846;51.528;5.076;2023-04-01T15:34:25;99628.44;;;8.36;85.63
60974;BME280;46846;51.528;5.076;2023-04-01T15:39:21;99629.38;;;8.35;85.78
60974;BME280;46846;51.528;5.076;2023-04-01T15:41:53;99631.81;;;8.40;85.65
60974;BME280;46846;51.528;5.076;2023-04-01T15:44:34;99641.59;;;8.38;85.68
60974;BME280;46846;51.528;5.076;2023-04-01T15:47:06;99638.13;;;8.37;85.63
60974;BME280;46846;51.528;5.076;2023-04-01T15:49:45;99649.56;;;8.38;85.59
60974;BME280;46846;51.528;5.076;2023-04-01T15:57:40;99652.09;;;8.41;85.48
60974;BME280;46846;51.528;5.076;2023-04-01T16:05:34;99659.97;;;8.42;85.46
60974;BME280;46846;51.528;5.076;2023-04-01T16:13:23;99666.91;;;8.45;85.40
60974;BME280;46846;51.528;5.076;2023-04-01T16:23:51;99674.28;;;8.38;85.38
60974;BME280;46846;51.528;5.076;2023-04-01T16:26:26;99679.38;;;8.43;85.42
60974;BME280;46846;51.528;5.076;2023-04-01T16:36:35;99689.25;;;8.39;85.74
60974;BME280;46846;51.528;5.076;2023-04-01T16:44:53;99697.00;;;8.44;85.36
60974;BME280;46846;51.528;5.076;2023-04-01T16:47:21;99697.88;;;8.44;85.62
60974;BME280;46846;51.528;5.076;2023-04-01T16:49:59;99703.25;;;8.43;85.48
60974;BME280;46846;51.528;5.076;2023-04-01T16:57:57;99726.13;;;8.45;85.47
60974;BME280;46846;51.528;5.076;2023-04-01T17:02:57;99735.06;;;8.43;85.68
60974;BME280;46846;51.528;5.076;2023-04-01T17:11:20;99753.59;;;8.43;85.67
60974;BME280;46846;51.528;5.076;2023-04-01T17:21:43;99767.66;;;8.45;85.24
60974;BME280;46846;51.528;5.076;2023-04-01T17:32:20;99780.00;;;8.46;85.74
60974;BME280;46846;51.528;5.076;2023-04-01T17:42:31;99790.53;;;8.47;85.61
60974;BME280;46846;51.528;5.076;2023-04-01T17:50:09;99811.00;;;8.44;85.45
60974;BME280;46846;51.528;5.076;2023-04-01T17:52:42;99818.13;;;8.43;85.41
60974;BME280;46846;51.528;5.076;2023-04-01T17:57:46;99824.00;;;8.50;85.59
60974;BME280;46846;51.528;5.076;2023-04-01T18:15:40;99859.91;;;8.37;85.65
60974;BME280;46846;51.528;5.076;2023-04-01T18:25:46;99891.94;;;8.30;85.88
60974;BME280;46846;51.528;5.076;2023-04-01T18:28:18;99898.88;;;8.34;85.63
60974;BME280;46846;51.528;5.076;2023-04-01T18:30:50;99902.69;;;8.27;86.03
60974;BME280;46846;51.528;5.076;2023-04-01T18:33:18;99908.00;;;8.27;85.80
60974;BME280;46846;51.528;5.076;2023-04-01T18:35:48;99907.84;;;8.30;85.94
60974;BME280;46846;51.528;5.076;2023-04-01T18:38:16;99927.47;;;8.26;85.84
60974;BME280;46846;51.528;5.076;2023-04-01T18:41:08;99930.91;;;8.28;85.97
60974;BME280;46846;51.528;5.076;2023-04-01T18:43:53;99932.88;;;8.23;86.18
60974;BME280;46846;51.528;5.076;2023-04-01T18:49:06;99952.03;;;8.31;85.78
60974;BME280;46846;51.528;5.076;2023-04-01T18:56:27;99969.50;;;8.35;85.81
60974;BME280;46846;51.528;5.076;2023-04-01T19:09:50;100006.75;;;8.32;86.04
60974;BME280;46846;51.528;5.076;2023-04-01T19:17:30;100013.13;;;8.27;85.97
60974;BME280;46846;51.528;5.076;2023-04-01T19:28:16;100045.00;;;8.25;85.71
60974;BME280;46846;51.528;5.076;2023-04-01T19:30:32;100039.72;;;8.25;85.87
60974;BME280;46846;51.528;5.076;2023-04-01T19:38:03;100050.50;;;8.20;85.77
60974;BME280;46846;51.528;5.076;2023-04-01T19:46:03;100074.41;;;8.19;85.57
60974;BME280;46846;51.528;5.076;2023-04-01T19:53:31;100074.25;;;8.22;85.34
60974;BME280;46846;51.528;5.076;2023-04-01T20:01:27;100100.69;;;8.25;85.32
60974;BME280;46846;51.528;5.076;2023-04-01T20:03:58;100113.84;;;8.27;85.15
60974;BME280;46846;51.528;5.076;2023-04-01T20:06:35;100108.88;;;8.17;85.46
60974;BME280;46846;51.528;5.076;2023-04-01T20:16:40;100138.09;;;8.16;85.68
60974;BME280;46846;51.528;5.076;2023-04-01T20:19:08;100132.00;;;8.14;85.52
60974;BME280;46846;51.528;5.076;2023-04-01T20:21:36;100138.97;;;8.16;85.36
60974;BME280;46846;51.528;5.076;2023-04-01T20:24:26;100147.97;;;8.12;85.51
60974;BME280;46846;51.528;5.076;2023-04-01T20:35:37;100172.63;;;8.14;85.00
60974;BME280;46846;51.528;5.076;2023-04-01T20:43:14;100195.59;;;8.14;85.04
60974;BME280;46846;51.528;5.076;2023-04-01T20:45:51;100201.81;;;8.13;84.95
60974;BME280;46846;51.528;5.076;2023-04-01T20:51:23;100208.16;;;8.09;85.03
60974;BME280;46846;51.528;5.076;2023-04-01T20:53:50;100207.63;;;7.97;85.40
60974;BME280;46846;51.528;5.076;2023-04-01T21:01:36;100234.69;;;8.07;84.71
60974;BME280;46846;51.528;5.076;2023-04-01T21:09:38;100242.69;;;8.05;83.65
60974;BME280;46846;51.528;5.076;2023-04-01T21:26:11;100273.72;;;8.02;84.55
60974;BME280;46846;51.528;5.076;2023-04-01T21:49:19;100321.66;;;7.94;83.88
60974;BME280;46846;51.528;5.076;2023-04-01T21:52:10;100334.03;;;7.93;83.61
60974;BME280;46846;51.528;5.076;2023-04-01T21:55:03;100342.97;;;7.89;84.40
60974;BME280;46846;51.528;5.076;2023-04-01T22:00:25;100346.75;;;7.82;84.69
60974;BME280;46846;51.528;5.076;2023-04-01T22:05:32;100360.72;;;7.87;84.16
60974;BME280;46846;51.528;5.076;2023-04-01T22:10:50;100373.28;;;7.80;84.59
60974;BME280;46846;51.528;5.076;2023-04-01T22:13:26;100375.88;;;7.82;84.34
60974;BME280;46846;51.528;5.076;2023-04-01T22:18:51;100381.31;;;7.77;84.24
60974;BME280;46846;51.528;5.076;2023-04-01T22:21:26;100396.19;;;7.83;84.06
60974;BME280;46846;51.528;5.076;2023-04-01T22:24:07;100401.66;;;7.77;84.19
60974;BME280;46846;51.528;5.076;2023-04-01T22:29:23;100412.44;;;7.71;84.41
60974;BME280;46846;51.528;5.076;2023-04-01T22:31:53;100408.81;;;7.73;84.34
60974;BME280;46846;51.528;5.076;2023-04-01T22:34:23;100408.84;;;7.72;84.67
60974;BME280;46846;51.528;5.076;2023-04-01T22:36:58;100414.16;;;7.72;84.62
60974;BME280;46846;51.528;5.076;2023-04-01T22:42:01;100423.91;;;7.71;84.18
60974;BME280;46846;51.528;5.076;2023-04-01T22:44:43;100423.91;;;7.71;84.55
60974;BME280;46846;51.528;5.076;2023-04-01T22:47:37;100426.56;;;7.71;84.07
60974;BME280;46846;51.528;5.076;2023-04-01T22:50:19;100430.00;;;7.73;84.17
60974;BME280;46846;51.528;5.076;2023-04-01T22:52:47;100437.25;;;7.66;84.55
60974;BME280;46846;51.528;5.076;2023-04-01T22:55:27;100437.53;;;7.57;85.12
60974;BME280;46846;51.528;5.076;2023-04-01T22:57:56;100439.13;;;7.63;85.03
60974;BME280;46846;51.528;5.076;2023-04-01T23:00:25;100444.41;;;7.63;84.99
60974;BME280;46846;51.528;5.076;2023-04-01T23:05:26;100459.66;;;7.55;84.92
60974;BME280;46846;51.528;5.076;2023-04-01T23:07:56;100463.84;;;7.62;84.58
60974;BME280;46846;51.528;5.076;2023-04-01T23:10:30;100462.25;;;7.56;84.89
60974;BME280;46846;51.528;5.076;2023-04-01T23:13:04;100471.91;;;7.59;84.67
60974;BME280;46846;51.528;5.076;2023-04-01T23:15:35;100477.19;;;7.59;84.61
60974;BME280;46846;51.528;5.076;2023-04-01T23:35:36;100519.81;;;7.49;83.55
60974;BME280;46846;51.528;5.076;2023-04-01T23:38:11;100525.13;;;7.49;84.13
60974;BME280;46846;51.528;5.076;2023-04-01T23:40:36;100531.41;;;7.45;84.47
60974;BME280;46846;51.528;5.076;2023-04-01T23:43:01;100534.94;;;7.44;84.71
60974;BME280;46846;51.528;5.076;2023-04-01T23:45:27;100531.41;;;7.44;84.25
60974;BME280;46846;51.528;5.076;2023-04-01T23:47:52;100538.50;;;7.43;83.84
60974;BME280;46846;51.528;5.076;2023-04-01T23:50:18;100544.66;;;7.44;83.74
60974;BME280;46846;51.528;5.076;2023-04-01T23:52:46;100540.16;;;7.47;82.58
60974;BME280;46846;51.528;5.076;2023-04-01T23:55:22;100537.69;;;7.41;83.82
